Marion, SC (29571)

4:55 AM EDT on July 29, 2016 (GMT -0400)
Gapway SC | | Change Station

Elev 90 ft 34.15 °N, 79.25 °W | Updated 1 minute ago

Clear
Clear
77.4 °F
Feels Like 79 °F
N
0.0
Wind Variable Wind from South

Today
High -- | Low -- °F
--% Chance of Precip.
Yesterday
High -- | Low -- °F
Precip. -- in
Pressure 29.91 in
Visibility 10.0 miles
Clouds Clear
Heat Index 79 °F
Dew Point 76 °F
Humidity 96%
Rainfall 0.00 in
Snow Depth Not available.
6:26 AM 8:20 PM
Waning Crescent, 24% visible
METAR KFLO 290853Z AUTO 23005KT 10SM CLR 26/21 A2992 RMK AO2 SLP129 T02560206 50001
Pressure 29.91 in
Visibility 10.0 miles
Clouds Clear
Heat Index 79 °F
Dew Point 76 °F
Humidity 96%
Rainfall 0.00 in
Snow Depth Not available.
6:26 AM 8:20 PM
Waning Crescent, 24% visible
METAR KFLO 290853Z AUTO 23005KT 10SM CLR 26/21 A2992 RMK AO2 SLP129 T02560206 50001

10-Day Weather Forecast

Almanac

Astronomy

Jul. 29, 2016 Rise Set
Actual Time
Civil Twilight
Nautical Twilight
Astronomical Twilight
Moon
Length of Visible Light
Length of Day
Tomorrow will be .
, % of the Moon is Illuminated

Today's Extremes

State Highs State Lows

Community

WunderPhotos

Upload Photos

1,928,300 photos uploaded!

WunderBlog® & News

Nearby

Air Quality

  Air Quality AQ Index Pollutant
Not available.

Snow Depth

Station Depth Elevation

Earthquake Activity

City Distance Mag. Time & Date
Minimum magnitude displayed is 2.5.

Coastal Water Temperatures

Place Temperature

Stations

Nearby Weather Stations

Station Location Temp. Windchill Dew Point Humidity Wind Precip. Elev Updated Type
                   

Watches & Warnings

There are currently no watches in effect.